createdAt,value
2019-05-11T00:00:55.390Z,965.67
2019-05-11T00:01:55.428Z,965.70
2019-05-11T00:02:55.504Z,965.66
2019-05-11T00:03:55.528Z,965.63
2019-05-11T00:04:55.585Z,965.61
2019-05-11T00:05:55.626Z,965.61
2019-05-11T00:06:55.675Z,965.60
2019-05-11T00:07:55.744Z,965.60
2019-05-11T00:08:55.792Z,965.55
2019-05-11T00:09:58.428Z,965.60
2019-05-11T00:10:55.912Z,965.58
2019-05-11T00:11:55.945Z,965.55
2019-05-11T00:12:55.958Z,965.52
2019-05-11T00:13:56.023Z,965.49
2019-05-11T00:14:56.111Z,965.51
2019-05-11T00:15:56.100Z,965.48
2019-05-11T00:16:56.145Z,965.50
2019-05-11T00:17:56.196Z,965.43
2019-05-11T00:18:56.248Z,965.43
2019-05-11T00:19:56.327Z,965.37
2019-05-11T00:20:56.340Z,965.33
2019-05-11T00:21:56.390Z,965.32
2019-05-11T00:22:56.433Z,965.30
2019-05-11T00:23:56.513Z,965.29
2019-05-11T00:24:56.541Z,965.27
2019-05-11T00:25:56.577Z,965.27
2019-05-11T00:26:56.630Z,965.23
2019-05-11T00:27:56.679Z,965.19
2019-05-11T00:28:56.758Z,965.14
2019-05-11T00:29:56.789Z,965.10
2019-05-11T00:30:56.814Z,965.12
2019-05-11T00:31:56.871Z,965.12
2019-05-11T00:32:56.922Z,965.06
2019-05-11T00:33:57.030Z,965.09
2019-05-11T00:34:57.019Z,965.07
2019-05-11T00:35:57.056Z,965.08
2019-05-11T00:36:57.115Z,965.04
2019-05-11T00:37:57.168Z,964.99
2019-05-11T00:38:57.232Z,965.00
2019-05-11T00:40:12.068Z,964.97
2019-05-11T00:40:57.292Z,964.96
2019-05-11T00:41:57.345Z,964.95
2019-05-11T00:42:57.387Z,964.87
2019-05-11T00:43:57.495Z,964.86
2019-05-11T00:44:57.485Z,964.86
2019-05-11T00:45:57.533Z,964.88
2019-05-11T00:46:57.580Z,964.85
2019-05-11T00:47:57.627Z,964.90
2019-05-11T00:48:57.694Z,964.87
2019-05-11T00:49:57.743Z,964.87
2019-05-11T00:50:57.766Z,964.84
2019-05-11T00:51:57.819Z,964.84
2019-05-11T00:52:57.866Z,964.77
2019-05-11T00:53:57.919Z,964.78
2019-05-11T00:54:57.990Z,964.79
2019-05-11T00:55:58.015Z,964.78
2019-05-11T00:56:58.055Z,964.74
2019-05-11T00:57:58.108Z,964.70
2019-05-11T00:58:58.158Z,964.71
2019-05-11T00:59:58.218Z,964.66
2019-05-11T01:00:58.261Z,964.66
2019-05-11T01:01:58.293Z,964.66
2019-05-11T01:02:58.346Z,964.64
2019-05-11T01:03:58.397Z,964.68
2019-05-11T01:04:58.434Z,964.72
2019-05-11T01:05:58.517Z,964.69
2019-05-11T01:06:58.666Z,964.65
2019-05-11T01:07:58.583Z,964.61
2019-05-11T01:08:58.624Z,964.63
2019-05-11T01:09:58.679Z,964.68
2019-05-11T01:10:58.743Z,964.68
2019-05-11T01:11:58.782Z,964.63
2019-05-11T01:12:58.824Z,964.58
2019-05-11T01:13:58.897Z,964.58
2019-05-11T01:14:58.954Z,964.59
2019-05-11T01:15:58.986Z,964.61
2019-05-11T01:16:59.008Z,964.59
2019-05-11T01:17:59.063Z,964.68
2019-05-11T01:18:59.101Z,964.67
2019-05-11T01:19:59.150Z,964.65
2019-05-11T01:20:59.279Z,964.59
2019-05-11T01:21:59.244Z,964.60
2019-05-11T01:22:59.601Z,964.53
2019-05-11T01:23:59.339Z,964.46
2019-05-11T01:24:59.394Z,964.43
2019-05-11T01:25:59.458Z,964.38
2019-05-11T01:26:59.482Z,964.39
2019-05-11T01:27:59.571Z,964.41
2019-05-11T01:28:59.577Z,964.44
2019-05-11T01:29:59.629Z,964.46
2019-05-11T01:30:59.696Z,964.52
2019-05-11T01:31:59.726Z,964.46
2019-05-11T01:32:59.771Z,964.46
2019-05-11T01:33:59.819Z,964.44
2019-05-11T01:34:59.861Z,964.39
2019-05-11T01:35:59.936Z,964.38
2019-05-11T01:36:59.964Z,964.40
2019-05-11T01:38:00.009Z,964.40
2019-05-11T01:39:00.053Z,964.36
2019-05-11T01:40:00.107Z,964.34
2019-05-11T01:41:00.172Z,964.31
2019-05-11T01:42:00.195Z,964.34
2019-05-11T01:43:00.243Z,964.33
2019-05-11T01:44:00.292Z,964.36
2019-05-11T01:45:00.353Z,964.32
2019-05-11T01:46:00.409Z,964.30
2019-05-11T01:47:00.455Z,964.29
2019-05-11T01:48:00.482Z,964.24
2019-05-11T01:49:00.537Z,964.22
2019-05-11T01:50:00.577Z,964.22
2019-05-11T01:51:00.646Z,964.18
2019-05-11T01:52:00.706Z,964.19
2019-05-11T01:53:00.729Z,964.18
2019-05-11T01:54:00.837Z,964.19
2019-05-11T01:55:00.815Z,964.22
2019-05-11T01:56:00.885Z,964.20
2019-05-11T01:57:00.930Z,964.17
2019-05-11T01:58:00.962Z,964.14
2019-05-11T01:59:01.004Z,964.14
2019-05-11T02:00:01.051Z,964.13
2019-05-11T02:01:01.103Z,964.13
2019-05-11T02:02:01.243Z,964.10
2019-05-11T02:03:01.193Z,964.13
2019-05-11T02:04:01.246Z,964.10
2019-05-11T02:05:01.299Z,964.08
2019-05-11T02:06:01.356Z,964.07
2019-05-11T02:07:01.422Z,964.08
2019-05-11T02:08:01.434Z,964.05
2019-05-11T02:09:01.486Z,964.02
2019-05-11T02:10:01.541Z,964.02
2019-05-11T02:11:14.988Z,963.95
2019-05-11T02:12:01.664Z,963.94
2019-05-11T02:13:01.680Z,963.92
2019-05-11T02:14:01.722Z,963.88
2019-05-11T02:15:01.768Z,963.91
2019-05-11T02:16:01.846Z,963.90
2019-05-11T02:17:01.889Z,963.88
2019-05-11T02:18:01.915Z,963.89
2019-05-11T02:19:01.967Z,963.84
2019-05-11T02:20:02.042Z,963.83
2019-05-11T02:21:02.056Z,963.83
2019-05-11T02:22:02.128Z,963.82
2019-05-11T02:23:02.161Z,963.83
2019-05-11T02:24:02.199Z,963.84
2019-05-11T02:25:02.249Z,963.80
2019-05-11T02:26:02.295Z,963.88
2019-05-11T02:27:02.380Z,963.85
2019-05-11T02:28:02.393Z,963.85
2019-05-11T02:29:02.439Z,963.83
2019-05-11T02:30:02.499Z,963.82
2019-05-11T02:31:02.538Z,963.83
2019-05-11T02:32:02.600Z,963.89
2019-05-11T02:33:02.651Z,963.95
2019-05-11T02:34:02.769Z,963.97
2019-05-11T02:35:02.735Z,964.04
2019-05-11T02:36:02.782Z,964.09
2019-05-11T02:37:02.822Z,964.20
2019-05-11T02:38:02.899Z,964.27
2019-05-11T02:39:02.923Z,964.26
2019-05-11T02:40:02.970Z,964.30
2019-05-11T02:41:03.097Z,964.28
2019-05-11T02:42:03.057Z,964.30
2019-05-11T02:43:03.123Z,964.38
2019-05-11T02:44:03.152Z,964.39
2019-05-11T02:45:03.207Z,964.40
2019-05-11T02:46:03.264Z,964.36
2019-05-11T02:47:03.299Z,964.32
2019-05-11T02:48:03.366Z,964.26
2019-05-11T02:49:03.396Z,964.25
2019-05-11T02:50:03.441Z,964.30
2019-05-11T02:51:03.491Z,964.28
2019-05-11T02:52:03.536Z,964.31
2019-05-11T02:53:03.608Z,964.41
2019-05-11T02:54:03.650Z,964.43
2019-05-11T02:55:03.682Z,964.47
2019-05-11T02:56:03.766Z,964.53
2019-05-11T02:57:03.799Z,964.53
2019-05-11T02:58:03.831Z,964.52
2019-05-11T02:59:03.903Z,964.56
2019-05-11T03:00:03.922Z,964.65
2019-05-11T03:01:04.028Z,964.65
2019-05-11T03:02:04.020Z,964.63
2019-05-11T03:03:04.069Z,964.67
2019-05-11T03:04:04.210Z,964.69
2019-05-11T03:05:04.159Z,964.65
2019-05-11T03:06:04.206Z,964.66
2019-05-11T03:07:04.262Z,964.69
2019-05-11T03:08:04.303Z,964.64
2019-05-11T03:09:04.386Z,964.66
2019-05-11T03:10:04.399Z,964.63
2019-05-11T03:11:04.490Z,964.59
2019-05-11T03:12:04.496Z,964.59
2019-05-11T03:13:04.546Z,964.59
2019-05-11T03:14:04.614Z,964.55
2019-05-11T03:15:04.663Z,964.52
2019-05-11T03:16:04.684Z,964.52
2019-05-11T03:17:04.733Z,964.53
2019-05-11T03:18:04.791Z,964.43
2019-05-11T03:19:04.850Z,964.37
2019-05-11T03:20:04.879Z,964.34
2019-05-11T03:21:04.923Z,964.39
2019-05-11T03:22:04.973Z,964.38
2019-05-11T03:23:05.017Z,964.34
2019-05-11T03:24:05.085Z,964.33
2019-05-11T03:25:05.140Z,964.38
2019-05-11T03:26:05.181Z,964.43
2019-05-11T03:27:05.213Z,964.51
2019-05-11T03:28:05.264Z,964.55
2019-05-11T03:29:05.381Z,964.62
2019-05-11T03:30:05.382Z,964.60
2019-05-11T03:31:05.405Z,964.63
2019-05-11T03:32:05.451Z,964.59
2019-05-11T03:33:05.520Z,964.55
2019-05-11T03:34:05.545Z,964.52
2019-05-11T03:35:05.622Z,964.47
2019-05-11T03:36:05.645Z,964.51
2019-05-11T03:37:05.689Z,964.48
2019-05-11T03:38:05.745Z,964.41
2019-05-11T03:39:05.783Z,964.40
2019-05-11T03:40:05.856Z,964.38
2019-05-11T03:41:05.887Z,964.39
2019-05-11T03:42:14.746Z,964.36
2019-05-11T03:43:06.075Z,964.40
2019-05-11T03:44:06.124Z,964.45
2019-05-11T03:45:06.102Z,964.38
2019-05-11T03:46:06.148Z,964.43
2019-05-11T03:47:06.168Z,964.39
2019-05-11T03:48:06.217Z,964.43
2019-05-11T03:49:06.271Z,964.44
2019-05-11T03:50:06.317Z,964.51
2019-05-11T03:51:06.407Z,964.56
2019-05-11T03:52:06.453Z,964.60
2019-05-11T03:53:06.472Z,964.64
2019-05-11T03:54:06.500Z,964.63
2019-05-11T03:55:06.575Z,964.62
2019-05-11T03:56:06.623Z,964.55
2019-05-11T03:57:06.649Z,964.48
2019-05-11T03:58:06.703Z,964.49
2019-05-11T03:59:06.744Z,964.49
2019-05-11T04:00:06.783Z,964.53
2019-05-11T04:01:06.877Z,964.60
2019-05-11T04:02:06.886Z,964.62
2019-05-11T04:03:06.932Z,964.69
2019-05-11T04:04:06.979Z,964.76
2019-05-11T04:05:07.028Z,964.84
2019-05-11T04:06:07.104Z,964.81
2019-05-11T04:07:07.118Z,964.82
2019-05-11T04:08:07.162Z,964.80
2019-05-11T04:09:07.219Z,964.81
2019-05-11T04:10:07.263Z,964.79
2019-05-11T04:11:07.331Z,964.81
2019-05-11T04:12:07.353Z,964.79
2019-05-11T04:13:07.406Z,964.86
2019-05-11T04:14:07.450Z,964.83
2019-05-11T04:15:07.518Z,964.89
2019-05-11T04:16:07.577Z,965.03
2019-05-11T04:17:07.594Z,965.07
2019-05-11T04:18:07.641Z,965.03
2019-05-11T04:19:07.707Z,964.89
2019-05-11T04:20:07.750Z,964.79
2019-05-11T04:21:07.811Z,964.73
2019-05-11T04:22:07.826Z,964.69
2019-05-11T04:23:07.900Z,964.76
2019-05-11T04:24:07.984Z,964.75
2019-05-11T04:25:07.968Z,964.77
2019-05-11T04:26:08.053Z,964.77
2019-05-11T04:27:08.066Z,964.82
2019-05-11T04:28:08.111Z,964.90
2019-05-11T04:29:08.155Z,964.86
2019-05-11T04:30:08.213Z,964.84
2019-05-11T04:31:08.363Z,964.92
2019-05-11T04:32:08.298Z,964.90
2019-05-11T04:33:08.346Z,964.89
2019-05-11T04:34:08.398Z,964.85
2019-05-11T04:35:08.451Z,964.80
2019-05-11T04:36:08.514Z,964.80
2019-05-11T04:37:08.727Z,964.81
2019-05-11T04:38:08.619Z,964.82
2019-05-11T04:39:08.637Z,964.80
2019-05-11T04:40:08.675Z,964.78
2019-05-11T04:41:08.720Z,964.78
2019-05-11T04:42:08.803Z,964.81
2019-05-11T04:43:08.815Z,964.80
2019-05-11T04:44:08.867Z,964.79
2019-05-11T04:45:08.921Z,964.72
2019-05-11T04:46:08.959Z,964.69
2019-05-11T04:47:09.026Z,964.68
2019-05-11T04:48:09.055Z,964.68
2019-05-11T04:49:09.100Z,964.67
2019-05-11T04:50:09.150Z,964.63
2019-05-11T04:51:09.195Z,964.62
2019-05-11T04:52:09.264Z,964.60
2019-05-11T04:53:09.294Z,964.64
2019-05-11T04:54:09.378Z,964.66
2019-05-11T04:55:09.381Z,964.70
2019-05-11T04:56:09.428Z,964.73
2019-05-11T04:57:09.501Z,964.71
2019-05-11T04:58:09.534Z,964.74
2019-05-11T04:59:09.573Z,964.81
2019-05-11T05:00:09.620Z,964.81
2019-05-11T05:01:09.685Z,964.85
2019-05-11T05:02:09.739Z,964.82
2019-05-11T05:03:10.055Z,964.85
2019-05-11T05:04:14.374Z,964.77
2019-05-11T05:05:09.854Z,964.79
2019-05-11T05:06:21.752Z,964.79
2019-05-11T05:07:10.619Z,964.82
2019-05-11T05:08:10.204Z,964.81
2019-05-11T05:09:10.108Z,964.89
2019-05-11T05:10:14.173Z,964.87
2019-05-11T05:11:10.138Z,964.89
2019-05-11T05:12:13.947Z,964.83
2019-05-11T05:13:11.027Z,964.92
2019-05-11T05:14:10.404Z,964.98
2019-05-11T05:15:10.329Z,965.02
2019-05-11T05:16:10.375Z,965.12
2019-05-11T05:17:10.467Z,965.10
2019-05-11T05:18:10.479Z,965.06
2019-05-11T05:19:10.621Z,965.06
2019-05-11T05:20:10.564Z,965.11
2019-05-11T05:21:10.627Z,965.06
2019-05-11T05:22:10.695Z,965.00
2019-05-11T05:23:10.727Z,965.03
2019-05-11T05:24:10.757Z,965.00
2019-05-11T05:25:10.804Z,964.98
2019-05-11T05:26:10.868Z,964.91
2019-05-11T05:27:10.909Z,964.93
2019-05-11T05:28:10.977Z,964.93
2019-05-11T05:29:11.005Z,964.93
2019-05-11T05:30:11.301Z,964.96
2019-05-11T05:31:11.087Z,964.99
2019-05-11T05:32:11.153Z,965.00
2019-05-11T05:33:11.207Z,965.00
2019-05-11T05:34:11.233Z,965.00
2019-05-11T05:35:11.276Z,964.98
2019-05-11T05:36:11.332Z,964.99
2019-05-11T05:37:11.373Z,964.97
2019-05-11T05:38:11.458Z,964.96
2019-05-11T05:39:11.491Z,964.97
2019-05-11T05:40:11.519Z,964.85
2019-05-11T05:41:11.562Z,964.90
2019-05-11T05:42:11.623Z,964.94
2019-05-11T05:43:25.513Z,964.95
2019-05-11T05:44:11.745Z,964.95
2019-05-11T05:45:11.751Z,964.98
2019-05-11T05:46:11.803Z,965.00
2019-05-11T05:47:11.845Z,964.98
2019-05-11T05:48:11.906Z,965.00
2019-05-11T05:49:11.970Z,965.00
2019-05-11T05:50:11.991Z,964.97
2019-05-11T05:51:12.046Z,964.99
2019-05-11T05:52:12.086Z,964.98
2019-05-11T05:53:12.135Z,964.92
2019-05-11T05:54:12.202Z,964.90
2019-05-11T05:55:12.298Z,964.94
2019-05-11T05:56:12.278Z,965.00
2019-05-11T05:57:12.323Z,965.01
2019-05-11T05:58:12.381Z,965.04
2019-05-11T05:59:12.451Z,965.03
2019-05-11T06:00:12.474Z,965.07
2019-05-11T06:01:12.516Z,965.07
2019-05-11T06:02:12.576Z,965.10
2019-05-11T06:03:12.607Z,965.06
2019-05-11T06:04:12.690Z,965.09
2019-05-11T06:05:12.712Z,965.09
2019-05-11T06:06:12.787Z,965.03
2019-05-11T06:07:12.804Z,965.06
2019-05-11T06:08:12.851Z,965.07
2019-05-11T06:09:12.946Z,965.06
2019-05-11T06:10:12.946Z,965.08
2019-05-11T06:11:12.994Z,965.08
2019-05-11T06:12:13.042Z,965.10
2019-05-11T06:13:13.091Z,965.20
2019-05-11T06:14:13.160Z,965.19
2019-05-11T06:15:13.219Z,965.21
2019-05-11T06:16:13.232Z,965.26
2019-05-11T06:17:13.287Z,965.26
2019-05-11T06:18:13.326Z,965.30
2019-05-11T06:19:13.375Z,965.30
2019-05-11T06:20:13.453Z,965.32
2019-05-11T06:21:13.473Z,965.30
2019-05-11T06:22:13.525Z,965.34
2019-05-11T06:23:13.568Z,965.32
2019-05-11T06:24:13.663Z,965.31
2019-05-11T06:25:13.691Z,965.30
2019-05-11T06:26:13.713Z,965.33
2019-05-11T06:27:13.756Z,965.30
2019-05-11T06:28:13.831Z,965.26
2019-05-11T06:29:13.855Z,965.27
2019-05-11T06:30:13.946Z,965.37
2019-05-11T06:31:13.951Z,965.42
2019-05-11T06:32:13.996Z,965.41
2019-05-11T06:33:14.046Z,965.36
2019-05-11T06:34:14.096Z,965.38
2019-05-11T06:35:14.184Z,965.40
2019-05-11T06:36:14.208Z,965.41
2019-05-11T06:37:14.238Z,965.38
2019-05-11T06:38:14.312Z,965.39
2019-05-11T06:39:14.334Z,965.35
2019-05-11T06:40:14.409Z,965.40
2019-05-11T06:41:14.450Z,965.42
2019-05-11T06:42:14.477Z,965.45
2019-05-11T06:43:14.545Z,965.40
2019-05-11T06:44:14.579Z,965.40
2019-05-11T06:45:14.627Z,965.40
2019-05-11T06:46:14.722Z,965.42
2019-05-11T06:47:14.718Z,965.33
2019-05-11T06:48:14.776Z,965.33
2019-05-11T06:49:14.828Z,965.31
2019-05-11T06:50:14.920Z,965.33
2019-05-11T06:51:14.933Z,965.33
2019-05-11T06:52:14.974Z,965.33
2019-05-11T06:53:15.023Z,965.29
2019-05-11T06:54:15.056Z,965.30
2019-05-11T06:55:15.138Z,965.29
2019-05-11T06:56:15.181Z,965.31
2019-05-11T06:57:15.223Z,965.28
2019-05-11T06:58:15.255Z,965.27
2019-05-11T06:59:15.296Z,965.26
2019-05-11T07:00:15.353Z,965.26
2019-05-11T07:01:15.412Z,965.27
2019-05-11T07:02:15.441Z,965.30
2019-05-11T07:03:15.500Z,965.33
2019-05-11T07:04:15.537Z,965.35
2019-05-11T07:05:15.592Z,965.39
2019-05-11T07:06:15.678Z,965.36
2019-05-11T07:07:15.735Z,965.36
2019-05-11T07:08:15.745Z,965.35
2019-05-11T07:09:15.794Z,965.39
2019-05-11T07:10:15.835Z,965.35
2019-05-11T07:11:15.891Z,965.37
2019-05-11T07:12:16.032Z,965.37
2019-05-11T07:13:15.989Z,965.38
2019-05-11T07:14:20.521Z,965.35
2019-05-11T07:15:16.077Z,965.40
2019-05-11T07:16:16.129Z,965.44
2019-05-11T07:17:16.205Z,965.44
2019-05-11T07:18:16.236Z,965.41
2019-05-11T07:19:16.268Z,965.39
2019-05-11T07:20:16.330Z,965.39
2019-05-11T07:21:16.366Z,965.44
2019-05-11T07:22:16.433Z,965.46
2019-05-11T07:23:16.467Z,965.48
2019-05-11T07:24:16.583Z,965.48
2019-05-11T07:25:16.561Z,965.52
2019-05-11T07:26:16.608Z,965.54
2019-05-11T07:27:16.685Z,965.55
2019-05-11T07:28:16.707Z,965.55
2019-05-11T07:29:16.766Z,965.55
2019-05-11T07:30:16.803Z,965.56
2019-05-11T07:31:16.877Z,965.54
2019-05-11T07:32:23.026Z,965.58
2019-05-11T07:33:18.264Z,965.58
2019-05-11T07:34:18.535Z,965.59
2019-05-11T07:35:18.756Z,965.56
2019-05-11T07:36:17.762Z,965.59
2019-05-11T07:37:18.558Z,965.62
2019-05-11T07:38:18.386Z,965.57
2019-05-11T07:39:18.667Z,965.63
2019-05-11T07:40:18.755Z,965.66
2019-05-11T07:41:17.701Z,965.66
2019-05-11T07:42:18.046Z,965.67
2019-05-11T07:43:18.810Z,965.59
2019-05-11T07:44:19.107Z,965.62
2019-05-11T07:45:18.034Z,965.62
2019-05-11T07:46:18.232Z,965.64
2019-05-11T07:47:18.644Z,965.58
2019-05-11T07:48:18.638Z,965.59
2019-05-11T07:49:18.019Z,965.61
2019-05-11T07:50:18.288Z,965.65
2019-05-11T07:51:18.390Z,965.63
2019-05-11T07:52:18.265Z,965.63
2019-05-11T07:53:18.604Z,965.58
2019-05-11T07:54:18.725Z,965.63
2019-05-11T07:55:19.019Z,965.64
2019-05-11T07:56:18.774Z,965.62
2019-05-11T07:57:18.615Z,965.63
2019-05-11T07:58:20.361Z,965.68
2019-05-11T07:59:18.443Z,965.68
2019-05-11T08:00:18.755Z,965.66
2019-05-11T08:01:18.878Z,965.67
2019-05-11T08:02:18.357Z,965.65
2019-05-11T08:03:18.459Z,965.67
2019-05-11T08:04:18.485Z,965.63
2019-05-11T08:05:18.500Z,965.69
2019-05-11T08:06:18.644Z,965.70
2019-05-11T08:07:18.634Z,965.75
2019-05-11T08:08:18.663Z,965.75
2019-05-11T08:09:18.837Z,965.78
2019-05-11T08:10:18.790Z,965.79
2019-05-11T08:11:18.795Z,965.80
2019-05-11T08:12:19.315Z,965.78
2019-05-11T08:13:18.913Z,965.87
2019-05-11T08:14:18.940Z,965.89
2019-05-11T08:15:18.982Z,965.88
2019-05-11T08:16:19.053Z,965.88
2019-05-11T08:17:19.078Z,965.84
2019-05-11T08:18:19.152Z,965.83
2019-05-11T08:19:19.191Z,965.85
2019-05-11T08:20:19.221Z,965.85
2019-05-11T08:21:19.278Z,965.81
2019-05-11T08:22:22.770Z,965.81
2019-05-11T08:23:19.399Z,965.82
2019-05-11T08:24:19.455Z,965.81
2019-05-11T08:25:19.462Z,965.79
2019-05-11T08:26:19.524Z,965.79
2019-05-11T08:27:19.564Z,965.75
2019-05-11T08:28:19.611Z,965.77
2019-05-11T08:29:19.689Z,965.80
2019-05-11T08:30:19.823Z,965.82
2019-05-11T08:31:19.768Z,965.79
2019-05-11T08:32:19.804Z,965.79
2019-05-11T08:33:19.851Z,965.82
2019-05-11T08:34:19.938Z,965.80
2019-05-11T08:35:19.966Z,965.81
2019-05-11T08:36:19.994Z,965.86
2019-05-11T08:37:20.135Z,965.87
2019-05-11T08:38:20.098Z,965.90
2019-05-11T08:39:20.162Z,965.91
2019-05-11T08:40:20.206Z,965.89
2019-05-11T08:41:20.241Z,965.87
2019-05-11T08:42:20.283Z,965.86
2019-05-11T08:43:20.335Z,965.88
2019-05-11T08:44:20.392Z,965.86
2019-05-11T08:45:24.451Z,965.96
2019-05-11T08:46:20.496Z,965.88
2019-05-11T08:47:20.537Z,965.84
2019-05-11T08:48:20.594Z,965.87
2019-05-11T08:49:20.673Z,965.90
2019-05-11T08:50:20.701Z,965.87
2019-05-11T08:51:20.725Z,965.90
2019-05-11T08:52:20.766Z,965.93
2019-05-11T08:53:20.811Z,965.90
2019-05-11T08:54:20.873Z,965.90
2019-05-11T08:55:20.937Z,965.94
2019-05-11T08:56:20.960Z,965.91
2019-05-11T08:57:21.008Z,965.94
2019-05-11T08:58:21.058Z,965.92
2019-05-11T08:59:21.112Z,965.98
2019-05-11T09:00:21.201Z,965.92
2019-05-11T09:01:21.200Z,965.85
2019-05-11T09:02:21.243Z,965.82
2019-05-11T09:03:21.293Z,965.82
2019-05-11T09:04:21.342Z,965.73
2019-05-11T09:05:21.419Z,965.73
2019-05-11T09:06:21.439Z,965.69
2019-05-11T09:07:21.491Z,965.67
2019-05-11T09:08:21.543Z,965.70
2019-05-11T09:09:21.581Z,965.74
2019-05-11T09:10:21.650Z,965.77
2019-05-11T09:11:21.690Z,965.84
2019-05-11T09:12:21.732Z,965.89
2019-05-11T09:13:21.782Z,965.91
2019-05-11T09:14:21.843Z,965.88
2019-05-11T09:15:35.505Z,965.97
2019-05-11T09:16:21.947Z,965.88
2019-05-11T09:17:21.981Z,965.80
2019-05-11T09:18:22.023Z,965.78
2019-05-11T09:19:22.065Z,965.81
2019-05-11T09:20:22.124Z,965.84
2019-05-11T09:21:22.199Z,965.83
2019-05-11T09:22:22.222Z,965.86
2019-05-11T09:23:33.578Z,965.83
2019-05-11T09:24:22.305Z,965.89
2019-05-11T09:25:22.351Z,965.92
2019-05-11T09:26:22.425Z,966.01
2019-05-11T09:27:22.515Z,965.98
2019-05-11T09:28:22.510Z,966.02
2019-05-11T09:29:22.556Z,966.03
2019-05-11T09:30:22.591Z,966.08
2019-05-11T09:31:22.677Z,966.06
2019-05-11T09:32:22.704Z,966.09
2019-05-11T09:33:22.740Z,966.09
2019-05-11T09:34:22.791Z,966.10
2019-05-11T09:35:22.836Z,966.15
2019-05-11T09:36:23.007Z,966.14
2019-05-11T09:37:22.938Z,966.10
2019-05-11T09:38:22.990Z,966.09
2019-05-11T09:39:23.034Z,966.07
2019-05-11T09:40:23.087Z,966.01
2019-05-11T09:41:23.188Z,966.03
2019-05-11T09:42:23.203Z,966.02
2019-05-11T09:43:23.276Z,966.05
2019-05-11T09:44:23.275Z,966.07
2019-05-11T09:45:23.324Z,966.11
2019-05-11T09:46:23.385Z,966.08
2019-05-11T09:47:23.443Z,966.06
2019-05-11T09:48:23.469Z,965.95
2019-05-11T09:49:23.523Z,965.93
2019-05-11T09:50:23.566Z,965.94
2019-05-11T09:51:23.629Z,965.93
2019-05-11T09:52:23.677Z,965.99
2019-05-11T09:53:23.708Z,966.02
2019-05-11T09:54:23.759Z,966.03
2019-05-11T09:55:23.805Z,966.00
2019-05-11T09:56:23.860Z,965.97
2019-05-11T09:57:23.924Z,966.00
2019-05-11T09:58:23.955Z,965.93
2019-05-11T09:59:24.001Z,965.90
2019-05-11T10:00:24.071Z,965.86
2019-05-11T10:01:24.202Z,965.79
2019-05-11T10:02:24.183Z,965.80
2019-05-11T10:03:24.213Z,965.87
2019-05-11T10:04:24.251Z,965.91
2019-05-11T10:05:24.287Z,965.92
2019-05-11T10:06:24.335Z,965.86
2019-05-11T10:07:24.383Z,965.87
2019-05-11T10:08:24.511Z,965.90
2019-05-11T10:09:24.490Z,965.89
2019-05-11T10:10:24.545Z,965.93
2019-05-11T10:11:24.576Z,965.93
2019-05-11T10:12:24.629Z,965.98
2019-05-11T10:13:24.703Z,966.02
2019-05-11T10:14:24.729Z,966.01
2019-05-11T10:15:24.793Z,965.98
2019-05-11T10:16:24.818Z,965.95
2019-05-11T10:17:24.867Z,965.98
2019-05-11T10:18:24.943Z,966.02
2019-05-11T10:19:24.964Z,965.99
2019-05-11T10:20:25.016Z,965.97
2019-05-11T10:21:25.071Z,965.94
2019-05-11T10:22:25.116Z,965.98
2019-05-11T10:23:25.185Z,965.98
2019-05-11T10:24:25.199Z,966.00
2019-05-11T10:25:25.248Z,966.01
2019-05-11T10:26:27.263Z,966.00
2019-05-11T10:27:25.357Z,965.95
2019-05-11T10:28:25.412Z,966.05
2019-05-11T10:29:25.443Z,966.03
2019-05-11T10:30:27.822Z,965.98
2019-05-11T10:31:25.545Z,965.96
2019-05-11T10:32:25.591Z,965.99
2019-05-11T10:33:27.975Z,965.97
2019-05-11T10:34:25.683Z,966.00
2019-05-11T10:35:25.745Z,965.99
2019-05-11T10:36:27.836Z,966.00
2019-05-11T10:37:28.122Z,966.04
2019-05-11T10:38:25.908Z,966.02
2019-05-11T10:39:27.877Z,966.06
2019-05-11T10:40:28.092Z,966.07
2019-05-11T10:41:28.267Z,966.10
2019-05-11T10:42:27.954Z,966.10
2019-05-11T10:43:26.111Z,966.10
2019-05-11T10:44:28.154Z,966.15
2019-05-11T10:45:28.373Z,966.14
2019-05-11T10:46:28.220Z,966.16
2019-05-11T10:47:27.796Z,966.22
2019-05-11T10:48:28.171Z,966.20
2019-05-11T10:49:28.622Z,966.21
2019-05-11T10:50:28.683Z,966.30
2019-05-11T10:51:28.574Z,966.51
2019-05-11T10:52:28.607Z,966.66
2019-05-11T10:53:27.873Z,966.66
2019-05-11T10:54:28.708Z,966.70
2019-05-11T10:55:27.945Z,966.73
2019-05-11T10:56:28.462Z,966.65
2019-05-11T10:57:28.311Z,966.76
2019-05-11T10:58:28.535Z,966.84
2019-05-11T10:59:28.281Z,966.84
2019-05-11T11:00:28.288Z,966.85
2019-05-11T11:01:28.579Z,966.85
2019-05-11T11:02:27.872Z,966.85
2019-05-11T11:03:28.385Z,966.76
2019-05-11T11:04:28.804Z,966.76
2019-05-11T11:05:27.957Z,966.79
2019-05-11T11:06:28.149Z,966.76
2019-05-11T11:07:28.891Z,966.81
2019-05-11T11:08:27.810Z,966.85
2019-05-11T11:09:28.157Z,966.81
2019-05-11T11:10:28.622Z,966.81
2019-05-11T11:11:27.919Z,966.82
2019-05-11T11:12:27.986Z,966.74
2019-05-11T11:13:28.146Z,966.85
2019-05-11T11:14:28.734Z,966.84
2019-05-11T11:15:28.778Z,966.87
2019-05-11T11:16:36.727Z,966.78
2019-05-11T11:17:28.730Z,966.75
2019-05-11T11:18:28.792Z,966.74
2019-05-11T11:19:29.038Z,966.68
2019-05-11T11:20:28.193Z,966.66
2019-05-11T11:21:28.037Z,966.68
2019-05-11T11:22:39.072Z,966.62
2019-05-11T11:23:28.446Z,966.52
2019-05-11T11:24:28.674Z,966.50
2019-05-11T11:25:28.544Z,966.61
2019-05-11T11:26:28.546Z,966.60
2019-05-11T11:27:29.122Z,966.64
2019-05-11T11:28:28.286Z,966.65
2019-05-11T11:29:28.919Z,966.61
2019-05-11T11:30:28.678Z,966.55
2019-05-11T11:31:28.812Z,966.56
2019-05-11T11:32:28.436Z,966.58
2019-05-11T11:33:28.483Z,966.57
2019-05-11T11:34:28.529Z,966.52
2019-05-11T11:35:28.605Z,966.45
2019-05-11T11:36:28.677Z,966.45
2019-05-11T11:37:28.676Z,966.33
2019-05-11T11:38:28.816Z,966.31
2019-05-11T11:39:28.867Z,966.32
2019-05-11T11:40:28.815Z,966.37
2019-05-11T11:41:30.038Z,966.28
2019-05-11T11:42:28.905Z,966.27
2019-05-11T11:43:28.964Z,966.26
2019-05-11T11:44:29.007Z,966.31
2019-05-11T11:45:29.079Z,966.31
2019-05-11T11:46:29.169Z,966.32
2019-05-11T11:47:29.148Z,966.33
2019-05-11T11:48:29.200Z,966.34
2019-05-11T11:49:29.251Z,966.37
2019-05-11T11:50:29.297Z,966.38
2019-05-11T11:51:29.355Z,966.45
2019-05-11T11:52:29.398Z,966.43
2019-05-11T11:53:29.451Z,966.45
2019-05-11T11:54:29.514Z,966.43
2019-05-11T11:55:29.533Z,966.46
2019-05-11T11:56:29.588Z,966.48
2019-05-11T11:57:29.651Z,966.48
2019-05-11T11:58:29.668Z,966.50
2019-05-11T11:59:29.730Z,966.52
2019-05-11T12:00:29.762Z,966.60
2019-05-11T12:01:29.821Z,966.67
2019-05-11T12:02:29.884Z,966.67
2019-05-11T12:03:29.913Z,966.69
2019-05-11T12:04:29.963Z,966.63
2019-05-11T12:05:30.002Z,966.65
2019-05-11T12:06:30.051Z,966.59
2019-05-11T12:07:30.131Z,966.58
2019-05-11T12:08:30.155Z,966.52
2019-05-11T12:09:30.188Z,966.53
2019-05-11T12:10:30.242Z,966.51
2019-05-11T12:11:30.311Z,966.52
2019-05-11T12:12:30.357Z,966.56
2019-05-11T12:13:30.450Z,966.65
2019-05-11T12:14:30.437Z,966.69
2019-05-11T12:15:30.497Z,966.65
2019-05-11T12:16:30.527Z,966.58
2019-05-11T12:17:30.627Z,966.40
2019-05-11T12:18:30.626Z,966.25
2019-05-11T12:19:30.696Z,966.24
2019-05-11T12:20:30.724Z,966.19
2019-05-11T12:21:30.772Z,966.17
2019-05-11T12:22:30.841Z,966.32
2019-05-11T12:23:30.867Z,966.40
2019-05-11T12:24:30.907Z,966.44
2019-05-11T12:25:30.954Z,966.57
2019-05-11T12:26:31.017Z,966.64
2019-05-11T12:27:31.097Z,966.78
2019-05-11T12:28:31.097Z,966.83
2019-05-11T12:29:31.154Z,966.82